createdAt,value
2017-02-05T00:01:18.232Z,0
2017-02-05T00:06:15.436Z,0
2017-02-05T00:11:11.626Z,0
2017-02-05T00:16:08.111Z,0
2017-02-05T00:21:04.533Z,0
2017-02-05T00:26:00.893Z,0
2017-02-05T00:30:57.525Z,0
2017-02-05T00:35:53.753Z,0
2017-02-05T00:40:50.036Z,0
2017-02-05T00:45:46.591Z,0
2017-02-05T00:50:42.614Z,0
2017-02-05T00:55:38.988Z,0
2017-02-05T01:00:35.431Z,0
2017-02-05T01:05:31.815Z,0
2017-02-05T01:10:28.353Z,0
2017-02-05T01:15:24.755Z,0
2017-02-05T01:20:20.969Z,0
2017-02-05T01:25:17.390Z,0
2017-02-05T01:30:13.934Z,0
2017-02-05T01:35:10.793Z,0
2017-02-05T01:40:06.842Z,0
2017-02-05T01:45:03.917Z,0
2017-02-05T01:50:00.114Z,0
2017-02-05T01:54:56.771Z,0
2017-02-05T01:59:53.060Z,0
2017-02-05T02:04:49.513Z,0
2017-02-05T02:09:45.867Z,0
2017-02-05T02:14:41.911Z,0
2017-02-05T02:19:39.209Z,0
2017-02-05T02:24:35.951Z,0
2017-02-05T02:29:32.367Z,0
2017-02-05T02:34:28.889Z,0
2017-02-05T02:39:25.167Z,0
2017-02-05T02:44:21.668Z,0
2017-02-05T02:49:17.990Z,0
2017-02-05T02:54:14.371Z,0
2017-02-05T02:59:10.453Z,0
2017-02-05T03:04:06.875Z,0
2017-02-05T03:09:03.372Z,0
2017-02-05T03:13:59.831Z,0
2017-02-05T03:18:56.707Z,0
2017-02-05T03:23:53.047Z,0
2017-02-05T03:28:49.512Z,0
2017-02-05T03:33:45.990Z,0
2017-02-05T03:38:42.409Z,0
2017-02-05T03:43:38.846Z,0
2017-02-05T03:48:36.237Z,0
2017-02-05T03:53:32.818Z,0
2017-02-05T03:58:29.448Z,0
2017-02-05T04:03:25.670Z,0
2017-02-05T04:08:22.284Z,0
2017-02-05T04:13:18.657Z,0
2017-02-05T04:18:15.707Z,0
2017-02-05T04:23:12.110Z,0
2017-02-05T04:28:08.539Z,0
2017-02-05T04:33:04.985Z,0
2017-02-05T04:38:01.967Z,0
2017-02-05T04:42:58.258Z,0
2017-02-05T04:47:54.644Z,0
2017-02-05T04:52:51.045Z,0
2017-02-05T04:57:47.394Z,0
2017-02-05T05:02:43.797Z,0
2017-02-05T05:07:40.278Z,0
2017-02-05T05:12:37.048Z,0
2017-02-05T05:17:33.459Z,0
2017-02-05T05:22:29.836Z,0
2017-02-05T05:27:26.207Z,0
2017-02-05T05:32:22.985Z,0
2017-02-05T05:37:20.619Z,0
2017-02-05T05:42:16.596Z,0
2017-02-05T05:47:14.093Z,0
2017-02-05T05:52:11.191Z,0
2017-02-05T05:57:07.381Z,0
2017-02-05T06:02:04.563Z,0
2017-02-05T06:07:00.989Z,0
2017-02-05T06:11:57.699Z,0
2017-02-05T06:16:53.927Z,0
2017-02-05T06:21:50.239Z,0
2017-02-05T06:26:46.534Z,0
2017-02-05T06:31:44.059Z,0
2017-02-05T06:36:39.981Z,4
2017-02-05T06:41:36.350Z,4
2017-02-05T06:46:32.873Z,8
2017-02-05T06:51:29.323Z,12
2017-02-05T06:56:25.877Z,20
2017-02-05T07:01:22.306Z,28
2017-02-05T07:06:18.879Z,44
2017-02-05T07:11:16.048Z,64
2017-02-05T07:16:12.497Z,88
2017-02-05T07:21:09.014Z,128
2017-02-05T07:26:05.471Z,148
2017-02-05T07:31:01.969Z,164
2017-02-05T07:35:58.368Z,172
2017-02-05T07:40:54.622Z,244
2017-02-05T07:45:51.062Z,304
2017-02-05T07:50:47.474Z,376
2017-02-05T07:55:43.983Z,376
2017-02-05T08:00:40.316Z,540
2017-02-05T08:05:36.802Z,648
2017-02-05T08:10:32.761Z,660
2017-02-05T08:15:29.372Z,748
2017-02-05T08:20:26.024Z,828
2017-02-05T08:25:22.447Z,924
2017-02-05T08:30:18.859Z,984
2017-02-05T08:35:15.926Z,1208
2017-02-05T08:40:11.725Z,1332
2017-02-05T08:45:08.431Z,1404
2017-02-05T08:50:05.362Z,1624
2017-02-05T08:55:01.919Z,1584
2017-02-05T08:59:58.328Z,1568
2017-02-05T09:04:54.912Z,1616
2017-02-05T09:09:51.224Z,1732
2017-02-05T09:14:47.915Z,2128
2017-02-05T09:19:45.230Z,2264
2017-02-05T09:24:41.752Z,2240
2017-02-05T09:29:38.115Z,1932
2017-02-05T09:34:34.331Z,2436
2017-02-05T09:39:32.324Z,2780
2017-02-05T09:44:29.443Z,3528
2017-02-05T09:49:25.715Z,4084
2017-02-05T09:54:22.323Z,5552
2017-02-05T09:59:18.944Z,5700
2017-02-05T10:04:15.650Z,6284
2017-02-05T10:09:12.719Z,5956
2017-02-05T10:14:09.280Z,5956
2017-02-05T10:19:06.677Z,5136
2017-02-05T10:24:03.221Z,4992
2017-02-05T10:28:59.561Z,4988
2017-02-05T10:33:56.116Z,5940
2017-02-05T10:38:52.838Z,6200
2017-02-05T10:43:49.348Z,6668
2017-02-05T10:48:45.915Z,5800
2017-02-05T10:53:42.531Z,5908
2017-02-05T10:58:39.472Z,6460
2017-02-05T11:03:35.892Z,6328
2017-02-05T11:08:32.504Z,7192
2017-02-05T11:13:29.053Z,8900
2017-02-05T11:18:25.827Z,14736
2017-02-05T11:23:22.730Z,11360
2017-02-05T11:28:20.086Z,7824
2017-02-05T11:33:16.508Z,6904
2017-02-05T11:38:12.288Z,11832
2017-02-05T11:43:09.279Z,12140
2017-02-05T11:48:05.834Z,8324
2017-02-05T11:53:02.205Z,9672
2017-02-05T11:57:58.792Z,18432
2017-02-05T12:02:55.850Z,6560
2017-02-05T12:07:51.833Z,12828
2017-02-05T12:12:48.872Z,8400
2017-02-05T12:17:44.968Z,7704
2017-02-05T12:22:41.002Z,8836
2017-02-05T12:27:37.561Z,6616
2017-02-05T12:32:33.989Z,7256
2017-02-05T12:37:30.338Z,6152
2017-02-05T12:42:27.711Z,6792
2017-02-05T12:47:24.147Z,5860
2017-02-05T12:52:20.797Z,6988
2017-02-05T12:57:17.187Z,7244
2017-02-05T13:02:13.954Z,8436
2017-02-05T13:07:10.634Z,10344
2017-02-05T13:12:07.332Z,9204
2017-02-05T13:17:03.832Z,8168
2017-02-05T13:22:00.083Z,7848
2017-02-05T13:26:56.815Z,6916
2017-02-05T13:31:53.269Z,5504
2017-02-05T13:36:49.596Z,5108
2017-02-05T13:41:45.906Z,4824
2017-02-05T13:46:43.269Z,5416
2017-02-05T13:51:39.729Z,4300
2017-02-05T13:56:35.699Z,3552
2017-02-05T14:01:31.905Z,3460
2017-02-05T14:06:30.519Z,3408
2017-02-05T14:11:25.978Z,3284
2017-02-05T14:16:22.271Z,3240
2017-02-05T14:21:18.401Z,3640
2017-02-05T14:26:14.892Z,3508
2017-02-05T14:31:11.342Z,3112
2017-02-05T14:36:08.109Z,2908
2017-02-05T14:41:04.509Z,2684
2017-02-05T14:46:00.865Z,2676
2017-02-05T14:50:58.071Z,2452
2017-02-05T14:55:54.480Z,2492
2017-02-05T15:00:50.903Z,2376
2017-02-05T15:05:47.271Z,2308
2017-02-05T15:10:43.786Z,2248
2017-02-05T15:15:40.467Z,2196
2017-02-05T15:20:36.991Z,1852
2017-02-05T15:25:33.489Z,1692
2017-02-05T15:30:29.912Z,1484
2017-02-05T15:35:26.222Z,1352
2017-02-05T15:40:22.844Z,1156
2017-02-05T15:45:19.750Z,872
2017-02-05T15:50:16.015Z,604
2017-02-05T15:55:12.414Z,464
2017-02-05T16:00:08.966Z,392
2017-02-05T16:05:05.600Z,324
2017-02-05T16:10:01.944Z,236
2017-02-05T16:14:58.846Z,180
2017-02-05T16:19:54.780Z,124
2017-02-05T16:24:51.361Z,92
2017-02-05T16:29:47.722Z,64
2017-02-05T16:34:44.759Z,36
2017-02-05T16:39:41.121Z,20
2017-02-05T16:44:38.277Z,8
2017-02-05T16:49:34.578Z,4
2017-02-05T16:54:31.032Z,0
2017-02-05T16:59:27.353Z,0
2017-02-05T17:04:24.311Z,0
2017-02-05T17:09:20.855Z,0
2017-02-05T17:14:16.919Z,0
2017-02-05T17:19:14.410Z,0
2017-02-05T17:24:11.200Z,0
2017-02-05T17:29:07.434Z,0
2017-02-05T17:34:03.661Z,0
2017-02-05T17:39:00.331Z,0
2017-02-05T17:43:56.659Z,0
2017-02-05T17:48:53.380Z,0
2017-02-05T17:53:49.518Z,0
2017-02-05T17:58:45.880Z,0
2017-02-05T18:03:42.103Z,0
2017-02-05T18:08:38.560Z,0
2017-02-05T18:13:36.101Z,0
2017-02-05T18:18:32.520Z,0
2017-02-05T18:23:29.098Z,0
2017-02-05T18:28:25.260Z,0
2017-02-05T18:33:21.561Z,0
2017-02-05T18:38:17.927Z,0
2017-02-05T18:43:14.263Z,0
2017-02-05T18:48:10.370Z,0
2017-02-05T18:53:08.032Z,0
2017-02-05T18:58:03.821Z,0
2017-02-05T19:03:00.102Z,0
2017-02-05T19:07:56.602Z,0
2017-02-05T19:12:53.003Z,0
2017-02-05T19:17:49.177Z,0
2017-02-05T19:22:45.935Z,0
2017-02-05T19:27:41.987Z,0
2017-02-05T19:32:38.169Z,0
2017-02-05T19:37:34.468Z,0
2017-02-05T19:42:30.913Z,0
2017-02-05T19:47:28.451Z,0
2017-02-05T19:52:24.592Z,0
2017-02-05T19:57:21.037Z,0
2017-02-05T20:02:17.562Z,0
2017-02-05T20:07:14.810Z,0
2017-02-05T20:12:10.851Z,0
2017-02-05T20:17:07.829Z,0
2017-02-05T20:22:04.077Z,0
2017-02-05T20:27:00.670Z,0
2017-02-05T20:31:56.703Z,0
2017-02-05T20:36:53.009Z,0
2017-02-05T20:41:49.231Z,0
2017-02-05T20:46:47.163Z,0
2017-02-05T20:51:44.248Z,0
2017-02-05T20:56:40.261Z,0
2017-02-05T21:01:36.712Z,0
2017-02-05T21:06:33.812Z,0
2017-02-05T21:11:32.528Z,0
2017-02-05T21:16:28.388Z,0
2017-02-05T21:21:24.669Z,0
2017-02-05T21:26:21.112Z,0
2017-02-05T21:31:17.673Z,0
2017-02-05T21:36:14.093Z,0
2017-02-05T21:41:10.429Z,0
2017-02-05T21:46:06.581Z,0
2017-02-05T21:51:02.870Z,0
2017-02-05T21:55:59.378Z,0
2017-02-05T22:00:55.698Z,0
2017-02-05T22:05:51.831Z,0
2017-02-05T22:10:48.357Z,0
2017-02-05T22:15:45.093Z,0
2017-02-05T22:20:41.629Z,0
2017-02-05T22:25:38.118Z,0
2017-02-05T22:30:34.386Z,0
2017-02-05T22:35:30.700Z,0
2017-02-05T22:40:26.767Z,0
2017-02-05T22:45:23.096Z,0
2017-02-05T22:50:19.512Z,0
2017-02-05T22:55:15.850Z,0
2017-02-05T23:00:12.547Z,0
2017-02-05T23:05:08.885Z,0
2017-02-05T23:10:05.036Z,0
2017-02-05T23:15:01.477Z,0
2017-02-05T23:19:57.984Z,0
2017-02-05T23:24:54.299Z,0
2017-02-05T23:29:50.809Z,0
2017-02-05T23:34:47.116Z,0
2017-02-05T23:39:43.396Z,0
2017-02-05T23:44:39.756Z,0
2017-02-05T23:49:35.649Z,0
2017-02-05T23:54:31.855Z,0
2017-02-05T23:59:28.085Z,0
